Humidity-temperature Sensor

Selected Measurement Type: Relative Humidity

 
Relative Humidity [%]     6 entries per hour
Showing data from 4/18/2018 (00:00:00 Z) to 4/15/2018 (00:01:00 Z)
Previous Next [ Day | 3-Days | 7-Days ]
First Last
Prev [ Day | 3-Days | 7-Days ] Next
First Last

Start Time:     :
End Time:     :     
Time (in GMT) :00 :50 :40 :30 :20 :10
Previous Next [ Day | 3-Days | 7-Days ]
First Last
Prev [ Day | 3-Days | 7-Days ] Next
First Last


123 => good data
MM => data is determined as missing
-- => data not received/configured
Back to Top Back to Top
4/18/2018 00:00 to 23:10 86.52 85.97 86.08 86.44 86.04 85.89
4/17/2018 23:00 to 22:10 85.68 83.57 83.21 83.09 83.55 84.10
4/17/2018 22:00 to 21:10 84.35 84.01 76.60 78.37 79.49 78.92
4/17/2018 21:00 to 20:10 80.46 79.89 80.96 80.52 79.28 78.58
4/17/2018 20:00 to 19:10 79.21 79.32 77.07 78.67 78.63 78.37
4/17/2018 19:00 to 18:10 77.89 79.64 78.18 79.91 80.84 79.57
4/17/2018 18:00 to 17:10 79.49 78.20 79.34 77.55 77.76 77.83
4/17/2018 17:00 to 16:10 77.66 77.83 79.21 79.87 82.04 80.44
4/17/2018 16:00 to 15:10 79.17 81.32 81.07 80.35 80.50 79.53
4/17/2018 15:00 to 14:10 80.14 79.76 81.32 81.13 79.85 80.25
4/17/2018 14:00 to 13:10 78.33 80.20 81.78 79.38 82.20 80.73
4/17/2018 13:00 to 12:10 81.51 81.09 80.98 80.63 80.12 80.46
4/17/2018 12:00 to 11:10 79.55 80.20 82.12 78.25 80.94 79.05
4/17/2018 11:00 to 10:10 79.70 81.51 81.03 80.39 80.25 80.31
4/17/2018 10:00 to 9:10 81.53 81.93 82.33 83.43 83.64 83.76
4/17/2018 09:00 to 8:10 82.27 81.40 81.21 80.75 79.83 80.35
4/17/2018 08:00 to 7:10 81.09 80.71 79.80 79.76 80.06 78.81
4/17/2018 07:00 to 6:10 78.96 81.93 78.77 79.53 78.90 80.37
4/17/2018 06:00 to 5:10 78.41 80.56 81.00 80.44 81.05 82.23
4/17/2018 05:00 to 4:10 82.23 79.55 79.76 80.50 79.64 81.15
4/17/2018 04:00 to 3:10 80.54 80.77 80.27 80.79 82.88 83.55
4/17/2018 03:00 to 2:10 84.52 80.77 79.00 78.81 78.84 78.56
4/17/2018 02:00 to 1:10 79.21 80.86 80.48 80.23 80.54 80.67
4/17/2018 01:00 to 0:10 78.84 79.95 78.98 79.26 78.48 77.40
4/17/2018 00:00 to 23:10 77.78 78.06 77.83 78.44 77.59 79.05
4/16/2018 23:00 to 22:10 78.46 80.10 78.29 77.53 76.58 79.38
4/16/2018 22:00 to 21:10 77.91 80.39 80.92 80.20 80.10 80.27
4/16/2018 21:00 to 20:10 79.83 82.16 81.13 80.90 79.40 80.60
4/16/2018 20:00 to 19:10 81.40 81.26 80.39 80.08 79.36 80.12
4/16/2018 19:00 to 18:10 79.55 79.03 79.32 79.64 79.64 79.93
4/16/2018 18:00 to 17:10 80.31 80.37 79.03 80.84 78.86 78.84
4/16/2018 17:00 to 16:10 80.01 79.26 80.37 80.94 80.06 80.10
4/16/2018 16:00 to 15:10 81.28 81.34 81.76 81.85 80.71 82.06
4/16/2018 15:00 to 14:10 82.56 82.50 80.86 78.16 77.74 78.56
4/16/2018 14:00 to 13:10 79.83 83.28 82.81 82.46 81.61 80.58
4/16/2018 13:00 to 12:10 82.35 81.47 80.50 79.87 81.13 81.72
4/16/2018 12:00 to 11:10 81.24 81.47 81.55 81.30 80.54 81.19
4/16/2018 11:00 to 10:10 81.45 80.98 81.38 81.51 82.25 80.92
4/16/2018 10:00 to 9:10 80.06 81.17 80.65 79.38 79.03 78.79
4/16/2018 09:00 to 8:10 79.19 80.63 80.65 81.17 80.75 79.74
4/16/2018 08:00 to 7:10 79.26 80.77 80.63 79.17 80.06 79.03
4/16/2018 07:00 to 6:10 78.58 76.86 74.63 74.44 77.03 77.68
4/16/2018 06:00 to 5:10 76.86 77.45 76.27 74.71 76.33 73.68
4/16/2018 05:00 to 4:10 74.90 75.93 76.90 76.33 75.85 74.33
4/16/2018 04:00 to 3:10 75.19 76.39 75.85 74.58 76.46 76.69
4/16/2018 03:00 to 2:10 75.95 74.86 76.25 76.06 75.89 74.90
4/16/2018 02:00 to 1:10 75.40 75.32 76.35 75.19 76.31 75.15
4/16/2018 01:00 to 0:10 77.21 75.19 74.04 74.14 75.07 75.30
4/16/2018 00:00 to 23:10 74.77 74.52 75.49 74.54 74.73 75.53
4/15/2018 23:00 to 22:10 75.59 75.83 74.52 74.79 73.57 75.00
4/15/2018 22:00 to 21:10 74.46 73.76 73.34 74.04 74.48 73.47
4/15/2018 21:00 to 20:10 74.44 74.71 74.37 73.85 72.86 75.00
4/15/2018 20:00 to 19:10 74.84 73.99 74.48 75.43 74.50 74.18
4/15/2018 19:00 to 18:10 74.10 73.66 74.04 72.86 71.13 72.94
4/15/2018 18:00 to 17:10 74.92 73.61 74.90 74.29 72.90 74.44
4/15/2018 17:00 to 16:10 72.81 73.47 72.50 72.98 71.57 73.43
4/15/2018 16:00 to 15:10 72.27 73.30 74.44 72.06 72.60 71.26
4/15/2018 15:00 to 14:10 72.90 69.70 73.05 72.12 71.45 71.78
4/15/2018 14:00 to 13:10 73.07 71.13 73.78 70.50 72.20 72.54
4/15/2018 13:00 to 12:10 72.10 73.45 72.63 71.72 74.98 69.80
4/15/2018 12:00 to 11:10 74.73 73.51 71.93 73.36 73.40 72.90
4/15/2018 11:00 to 10:10 -- -- -- -- -- --
4/15/2018 10:00 to 9:10 75.13 73.53 73.57 73.85 75.74 75.80
4/15/2018 09:00 to 8:10 74.86 75.83 75.97 74.46 73.00 75.34
4/15/2018 08:00 to 7:10 75.93 75.80 76.06 75.45 76.65 75.43
4/15/2018 07:00 to 6:10 73.55 74.01 76.75 76.31 75.47 77.76
4/15/2018 06:00 to 5:10 75.34 76.50 75.36 76.84 75.72 76.50
4/15/2018 05:00 to 4:10 76.90 76.50 76.16 75.76 75.55 76.98
4/15/2018 04:00 to 3:10 76.60 76.84 76.69 75.24 74.56 75.55
4/15/2018 03:00 to 2:10 72.81 75.57 76.23 74.96 75.36 74.01
4/15/2018 02:00 to 1:10 74.75 76.29 77.80 77.28 77.11 77.05
4/15/2018 01:00 to 0:10 76.90 77.85 76.31 78.44 76.69 78.25